sensor_id;sensor_type;location;lat;lon;timestamp;temperature;humidity
19734;DHT22;10018;51.230;7.860;2024-03-06T00:02:23;6.00;99.90
19734;DHT22;10018;51.230;7.860;2024-03-06T00:04:48;6.00;99.90
19734;DHT22;10018;51.230;7.860;2024-03-06T00:07:14;6.00;99.90
19734;DHT22;10018;51.230;7.860;2024-03-06T00:09:39;6.00;99.90
19734;DHT22;10018;51.230;7.860;2024-03-06T00:12:05;6.00;99.90
19734;DHT22;10018;51.230;7.860;2024-03-06T00:14:31;6.00;99.90
19734;DHT22;10018;51.230;7.860;2024-03-06T00:16:57;6.00;99.90
19734;DHT22;10018;51.230;7.860;2024-03-06T00:19:22;5.90;99.90
19734;DHT22;10018;51.230;7.860;2024-03-06T00:21:48;5.90;99.90
19734;DHT22;10018;51.230;7.860;2024-03-06T00:24:15;5.90;99.90
19734;DHT22;10018;51.230;7.860;2024-03-06T00:26:44;5.90;99.90
19734;DHT22;10018;51.230;7.860;2024-03-06T00:29:10;5.90;99.90
19734;DHT22;10018;51.230;7.860;2024-03-06T00:31:41;5.90;99.90
19734;DHT22;10018;51.230;7.860;2024-03-06T00:34:07;5.90;99.90
19734;DHT22;10018;51.230;7.860;2024-03-06T00:36:33;5.90;99.90
19734;DHT22;10018;51.230;7.860;2024-03-06T00:38:59;5.90;99.90
19734;DHT22;10018;51.230;7.860;2024-03-06T00:41:24;5.90;99.90
19734;DHT22;10018;51.230;7.860;2024-03-06T00:43:50;5.90;99.90
19734;DHT22;10018;51.230;7.860;2024-03-06T00:46:15;5.90;99.90
19734;DHT22;10018;51.230;7.860;2024-03-06T00:48:41;5.90;99.90
19734;DHT22;10018;51.230;7.860;2024-03-06T00:51:07;5.90;99.90
19734;DHT22;10018;51.230;7.860;2024-03-06T00:53:36;5.80;99.90
19734;DHT22;10018;51.230;7.860;2024-03-06T00:56:02;5.80;99.90
19734;DHT22;10018;51.230;7.860;2024-03-06T00:58:28;5.80;99.90
19734;DHT22;10018;51.230;7.860;2024-03-06T01:00:54;5.90;99.90
19734;DHT22;10018;51.230;7.860;2024-03-06T01:03:19;5.90;99.90
19734;DHT22;10018;51.230;7.860;2024-03-06T01:05:45;5.90;99.90
19734;DHT22;10018;51.230;7.860;2024-03-06T01:08:11;5.80;99.90
19734;DHT22;10018;51.230;7.860;2024-03-06T01:10:37;5.80;99.90
19734;DHT22;10018;51.230;7.860;2024-03-06T01:13:04;5.80;99.90
19734;DHT22;10018;51.230;7.860;2024-03-06T01:15:30;5.80;99.90
19734;DHT22;10018;51.230;7.860;2024-03-06T01:17:56;5.80;99.90
19734;DHT22;10018;51.230;7.860;2024-03-06T01:20:22;5.80;99.90
19734;DHT22;10018;51.230;7.860;2024-03-06T01:22:48;5.80;99.90
19734;DHT22;10018;51.230;7.860;2024-03-06T01:25:14;5.90;99.90
19734;DHT22;10018;51.230;7.860;2024-03-06T01:27:39;5.80;99.90
19734;DHT22;10018;51.230;7.860;2024-03-06T01:30:06;5.80;99.90
19734;DHT22;10018;51.230;7.860;2024-03-06T01:32:31;5.80;99.90
19734;DHT22;10018;51.230;7.860;2024-03-06T01:34:58;5.70;99.90
19734;DHT22;10018;51.230;7.860;2024-03-06T01:37:24;5.70;99.90
19734;DHT22;10018;51.230;7.860;2024-03-06T01:39:49;5.70;99.90
19734;DHT22;10018;51.230;7.860;2024-03-06T01:42:17;5.70;99.90
19734;DHT22;10018;51.230;7.860;2024-03-06T01:44:43;5.70;99.90
19734;DHT22;10018;51.230;7.860;2024-03-06T01:47:09;5.70;99.90
19734;DHT22;10018;51.230;7.860;2024-03-06T01:49:34;5.70;99.90
19734;DHT22;10018;51.230;7.860;2024-03-06T01:52:01;5.70;99.90
19734;DHT22;10018;51.230;7.860;2024-03-06T01:54:27;5.70;99.90
19734;DHT22;10018;51.230;7.860;2024-03-06T01:56:54;5.80;99.90
19734;DHT22;10018;51.230;7.860;2024-03-06T01:59:22;5.80;99.90
19734;DHT22;10018;51.230;7.860;2024-03-06T02:01:53;5.70;99.90
19734;DHT22;10018;51.230;7.860;2024-03-06T02:04:19;5.80;99.90
19734;DHT22;10018;51.230;7.860;2024-03-06T02:06:45;5.70;99.90
19734;DHT22;10018;51.230;7.860;2024-03-06T02:09:12;5.70;99.90
19734;DHT22;10018;51.230;7.860;2024-03-06T02:11:39;5.70;99.90
19734;DHT22;10018;51.230;7.860;2024-03-06T02:14:04;5.70;99.90
19734;DHT22;10018;51.230;7.860;2024-03-06T02:16:32;5.70;99.90
19734;DHT22;10018;51.230;7.860;2024-03-06T02:18:57;5.80;99.90
19734;DHT22;10018;51.230;7.860;2024-03-06T02:21:24;5.70;99.90
19734;DHT22;10018;51.230;7.860;2024-03-06T02:23:50;5.70;99.90
19734;DHT22;10018;51.230;7.860;2024-03-06T02:26:20;5.70;99.90
19734;DHT22;10018;51.230;7.860;2024-03-06T02:28:53;5.70;99.90
19734;DHT22;10018;51.230;7.860;2024-03-06T02:31:19;5.70;99.90
19734;DHT22;10018;51.230;7.860;2024-03-06T02:33:46;5.70;99.90
19734;DHT22;10018;51.230;7.860;2024-03-06T02:36:18;5.70;99.90
19734;DHT22;10018;51.230;7.860;2024-03-06T02:38:44;5.70;99.90
19734;DHT22;10018;51.230;7.860;2024-03-06T02:41:10;5.70;99.90
19734;DHT22;10018;51.230;7.860;2024-03-06T02:43:36;5.70;99.90
19734;DHT22;10018;51.230;7.860;2024-03-06T02:46:02;5.70;99.90
19734;DHT22;10018;51.230;7.860;2024-03-06T02:48:28;5.60;99.90
19734;DHT22;10018;51.230;7.860;2024-03-06T02:50:54;5.70;99.90
19734;DHT22;10018;51.230;7.860;2024-03-06T02:53:19;5.60;99.90
19734;DHT22;10018;51.230;7.860;2024-03-06T02:55:45;5.70;99.90
19734;DHT22;10018;51.230;7.860;2024-03-06T02:58:10;5.70;99.90
19734;DHT22;10018;51.230;7.860;2024-03-06T03:00:38;5.70;99.90
19734;DHT22;10018;51.230;7.860;2024-03-06T03:03:04;5.70;99.90
19734;DHT22;10018;51.230;7.860;2024-03-06T03:05:30;5.70;99.90
19734;DHT22;10018;51.230;7.860;2024-03-06T03:07:55;5.60;99.90
19734;DHT22;10018;51.230;7.860;2024-03-06T03:10:21;5.70;99.90
19734;DHT22;10018;51.230;7.860;2024-03-06T03:12:46;5.70;99.90
19734;DHT22;10018;51.230;7.860;2024-03-06T03:15:12;5.60;99.90
19734;DHT22;10018;51.230;7.860;2024-03-06T03:17:37;5.70;99.90
19734;DHT22;10018;51.230;7.860;2024-03-06T03:20:03;5.70;99.90
19734;DHT22;10018;51.230;7.860;2024-03-06T03:22:41;5.70;99.90
19734;DHT22;10018;51.230;7.860;2024-03-06T03:25:08;5.70;99.90
19734;DHT22;10018;51.230;7.860;2024-03-06T03:27:34;5.70;99.90
19734;DHT22;10018;51.230;7.860;2024-03-06T03:30:00;5.70;99.90
19734;DHT22;10018;51.230;7.860;2024-03-06T03:32:25;5.70;99.90
19734;DHT22;10018;51.230;7.860;2024-03-06T03:34:51;5.70;99.90
19734;DHT22;10018;51.230;7.860;2024-03-06T03:37:17;5.70;99.90
19734;DHT22;10018;51.230;7.860;2024-03-06T03:39:45;5.60;99.90
19734;DHT22;10018;51.230;7.860;2024-03-06T03:42:11;5.50;99.90
19734;DHT22;10018;51.230;7.860;2024-03-06T03:44:37;5.50;99.90
19734;DHT22;10018;51.230;7.860;2024-03-06T03:47:02;5.40;99.90
19734;DHT22;10018;51.230;7.860;2024-03-06T03:49:28;5.40;99.90
19734;DHT22;10018;51.230;7.860;2024-03-06T03:51:54;5.40;99.90
19734;DHT22;10018;51.230;7.860;2024-03-06T03:54:19;5.30;99.90
19734;DHT22;10018;51.230;7.860;2024-03-06T03:56:45;5.30;99.90
19734;DHT22;10018;51.230;7.860;2024-03-06T03:59:10;5.30;99.90
19734;DHT22;10018;51.230;7.860;2024-03-06T04:01:36;5.30;99.90
19734;DHT22;10018;51.230;7.860;2024-03-06T04:04:02;5.30;99.90
19734;DHT22;10018;51.230;7.860;2024-03-06T04:06:30;5.30;99.90
19734;DHT22;10018;51.230;7.860;2024-03-06T04:08:55;5.20;99.90
19734;DHT22;10018;51.230;7.860;2024-03-06T04:11:21;5.20;99.90
19734;DHT22;10018;51.230;7.860;2024-03-06T04:13:46;5.20;99.90
19734;DHT22;10018;51.230;7.860;2024-03-06T04:16:16;5.20;99.90
19734;DHT22;10018;51.230;7.860;2024-03-06T04:18:43;5.20;99.90
19734;DHT22;10018;51.230;7.860;2024-03-06T04:21:08;5.20;99.90
19734;DHT22;10018;51.230;7.860;2024-03-06T04:23:35;5.10;99.90
19734;DHT22;10018;51.230;7.860;2024-03-06T04:26:02;5.10;99.90
19734;DHT22;10018;51.230;7.860;2024-03-06T04:28:27;5.00;99.90
19734;DHT22;10018;51.230;7.860;2024-03-06T04:30:53;5.00;99.90
19734;DHT22;10018;51.230;7.860;2024-03-06T04:33:19;5.00;99.90
19734;DHT22;10018;51.230;7.860;2024-03-06T04:35:45;5.00;99.90
19734;DHT22;10018;51.230;7.860;2024-03-06T04:38:13;5.00;99.90
19734;DHT22;10018;51.230;7.860;2024-03-06T04:40:39;5.00;99.90
19734;DHT22;10018;51.230;7.860;2024-03-06T04:43:05;5.00;99.90
19734;DHT22;10018;51.230;7.860;2024-03-06T04:45:32;4.90;99.90
19734;DHT22;10018;51.230;7.860;2024-03-06T04:47:57;4.90;99.90
19734;DHT22;10018;51.230;7.860;2024-03-06T04:50:24;4.90;99.90
19734;DHT22;10018;51.230;7.860;2024-03-06T04:52:49;4.90;99.90
19734;DHT22;10018;51.230;7.860;2024-03-06T04:55:15;4.90;99.90
19734;DHT22;10018;51.230;7.860;2024-03-06T04:57:45;4.90;99.90
19734;DHT22;10018;51.230;7.860;2024-03-06T05:00:12;4.90;99.90
19734;DHT22;10018;51.230;7.860;2024-03-06T05:02:38;4.90;99.90
19734;DHT22;10018;51.230;7.860;2024-03-06T05:05:04;4.90;99.90
19734;DHT22;10018;51.230;7.860;2024-03-06T05:07:30;4.90;99.90
19734;DHT22;10018;51.230;7.860;2024-03-06T05:09:57;4.80;99.90
19734;DHT22;10018;51.230;7.860;2024-03-06T05:12:24;4.80;99.90
19734;DHT22;10018;51.230;7.860;2024-03-06T05:14:50;4.80;99.90
19734;DHT22;10018;51.230;7.860;2024-03-06T05:17:16;4.80;99.90
19734;DHT22;10018;51.230;7.860;2024-03-06T05:19:43;4.70;99.90
19734;DHT22;10018;51.230;7.860;2024-03-06T05:22:10;4.80;99.90
19734;DHT22;10018;51.230;7.860;2024-03-06T05:24:37;4.80;99.90
19734;DHT22;10018;51.230;7.860;2024-03-06T05:27:02;4.80;99.90
19734;DHT22;10018;51.230;7.860;2024-03-06T05:29:28;4.80;99.90
19734;DHT22;10018;51.230;7.860;2024-03-06T05:31:53;4.80;99.90
19734;DHT22;10018;51.230;7.860;2024-03-06T05:34:21;4.80;99.90
19734;DHT22;10018;51.230;7.860;2024-03-06T05:36:47;4.80;99.90
19734;DHT22;10018;51.230;7.860;2024-03-06T05:39:13;4.90;99.90
19734;DHT22;10018;51.230;7.860;2024-03-06T05:41:42;4.80;99.90
19734;DHT22;10018;51.230;7.860;2024-03-06T05:44:07;4.90;99.90
19734;DHT22;10018;51.230;7.860;2024-03-06T05:46:33;4.90;99.90
19734;DHT22;10018;51.230;7.860;2024-03-06T05:48:59;4.90;99.90
19734;DHT22;10018;51.230;7.860;2024-03-06T05:51:26;4.90;99.90
19734;DHT22;10018;51.230;7.860;2024-03-06T05:53:52;4.80;99.90
19734;DHT22;10018;51.230;7.860;2024-03-06T05:56:18;4.90;99.90
19734;DHT22;10018;51.230;7.860;2024-03-06T05:58:43;4.90;99.90
19734;DHT22;10018;51.230;7.860;2024-03-06T06:01:15;4.90;99.90
19734;DHT22;10018;51.230;7.860;2024-03-06T06:03:41;4.80;99.90
19734;DHT22;10018;51.230;7.860;2024-03-06T06:06:07;4.90;99.90
19734;DHT22;10018;51.230;7.860;2024-03-06T06:08:34;4.90;99.90
19734;DHT22;10018;51.230;7.860;2024-03-06T06:11:00;4.90;99.90
19734;DHT22;10018;51.230;7.860;2024-03-06T06:13:28;4.90;99.90
19734;DHT22;10018;51.230;7.860;2024-03-06T06:15:54;4.90;99.90
19734;DHT22;10018;51.230;7.860;2024-03-06T06:18:19;4.90;99.90
19734;DHT22;10018;51.230;7.860;2024-03-06T06:20:45;4.90;99.90
19734;DHT22;10018;51.230;7.860;2024-03-06T06:23:11;4.90;99.90
19734;DHT22;10018;51.230;7.860;2024-03-06T06:25:37;4.80;99.90
19734;DHT22;10018;51.230;7.860;2024-03-06T06:28:02;4.90;99.90
19734;DHT22;10018;51.230;7.860;2024-03-06T06:30:29;4.80;99.90
19734;DHT22;10018;51.230;7.860;2024-03-06T06:32:54;4.90;99.90
19734;DHT22;10018;51.230;7.860;2024-03-06T06:35:22;4.80;99.90
19734;DHT22;10018;51.230;7.860;2024-03-06T06:37:48;4.80;99.90
19734;DHT22;10018;51.230;7.860;2024-03-06T06:40:14;4.90;99.90
19734;DHT22;10018;51.230;7.860;2024-03-06T06:42:49;4.90;99.90
19734;DHT22;10018;51.230;7.860;2024-03-06T06:45:21;4.90;99.90
19734;DHT22;10018;51.230;7.860;2024-03-06T06:47:51;4.80;99.90
19734;DHT22;10018;51.230;7.860;2024-03-06T06:50:17;4.80;99.90
19734;DHT22;10018;51.230;7.860;2024-03-06T06:52:43;4.80;99.90
19734;DHT22;10018;51.230;7.860;2024-03-06T06:55:08;4.80;99.90
19734;DHT22;10018;51.230;7.860;2024-03-06T06:57:37;4.80;99.90
19734;DHT22;10018;51.230;7.860;2024-03-06T07:00:04;4.80;99.90
19734;DHT22;10018;51.230;7.860;2024-03-06T07:02:39;4.80;99.90
19734;DHT22;10018;51.230;7.860;2024-03-06T07:05:06;4.80;99.90
19734;DHT22;10018;51.230;7.860;2024-03-06T07:07:32;4.80;99.90
19734;DHT22;10018;51.230;7.860;2024-03-06T07:09:58;4.80;99.90
19734;DHT22;10018;51.230;7.860;2024-03-06T07:12:26;4.80;99.90
19734;DHT22;10018;51.230;7.860;2024-03-06T07:14:53;4.80;99.90
19734;DHT22;10018;51.230;7.860;2024-03-06T07:17:19;4.70;99.90
19734;DHT22;10018;51.230;7.860;2024-03-06T07:19:44;4.70;99.90
19734;DHT22;10018;51.230;7.860;2024-03-06T07:22:10;4.50;99.90
19734;DHT22;10018;51.230;7.860;2024-03-06T07:24:36;4.50;99.90
19734;DHT22;10018;51.230;7.860;2024-03-06T07:27:02;4.40;99.90
19734;DHT22;10018;51.230;7.860;2024-03-06T07:29:28;4.40;99.90
19734;DHT22;10018;51.230;7.860;2024-03-06T07:31:53;4.40;99.90
19734;DHT22;10018;51.230;7.860;2024-03-06T07:34:20;4.30;99.90
19734;DHT22;10018;51.230;7.860;2024-03-06T07:36:47;4.30;99.90
19734;DHT22;10018;51.230;7.860;2024-03-06T07:39:14;4.40;99.90
19734;DHT22;10018;51.230;7.860;2024-03-06T07:41:40;4.40;99.90
19734;DHT22;10018;51.230;7.860;2024-03-06T07:44:06;4.50;99.90
19734;DHT22;10018;51.230;7.860;2024-03-06T07:46:31;4.50;99.90
19734;DHT22;10018;51.230;7.860;2024-03-06T07:48:57;4.60;99.90
19734;DHT22;10018;51.230;7.860;2024-03-06T07:51:25;4.60;99.90
19734;DHT22;10018;51.230;7.860;2024-03-06T07:53:51;4.70;99.90
19734;DHT22;10018;51.230;7.860;2024-03-06T07:56:20;4.70;99.90
19734;DHT22;10018;51.230;7.860;2024-03-06T07:58:45;4.80;99.90
19734;DHT22;10018;51.230;7.860;2024-03-06T08:01:13;4.90;99.90
19734;DHT22;10018;51.230;7.860;2024-03-06T08:03:41;5.00;99.90
19734;DHT22;10018;51.230;7.860;2024-03-06T08:06:08;5.10;99.90
19734;DHT22;10018;51.230;7.860;2024-03-06T08:08:39;5.10;99.90
19734;DHT22;10018;51.230;7.860;2024-03-06T08:11:07;5.10;99.90
19734;DHT22;10018;51.230;7.860;2024-03-06T08:13:37;5.10;99.90
19734;DHT22;10018;51.230;7.860;2024-03-06T08:16:06;5.10;99.90
19734;DHT22;10018;51.230;7.860;2024-03-06T08:18:36;5.20;99.90
19734;DHT22;10018;51.230;7.860;2024-03-06T08:21:02;5.30;99.90
19734;DHT22;10018;51.230;7.860;2024-03-06T08:23:30;5.30;99.90
19734;DHT22;10018;51.230;7.860;2024-03-06T08:25:56;5.30;99.90
19734;DHT22;10018;51.230;7.860;2024-03-06T08:28:22;5.30;99.90
19734;DHT22;10018;51.230;7.860;2024-03-06T08:30:47;5.30;99.90
19734;DHT22;10018;51.230;7.860;2024-03-06T08:33:13;5.30;99.90
19734;DHT22;10018;51.230;7.860;2024-03-06T08:35:39;5.30;99.90
19734;DHT22;10018;51.230;7.860;2024-03-06T08:38:05;5.40;99.90
19734;DHT22;10018;51.230;7.860;2024-03-06T08:40:32;5.40;99.90
19734;DHT22;10018;51.230;7.860;2024-03-06T08:42:57;5.50;99.90
19734;DHT22;10018;51.230;7.860;2024-03-06T08:45:24;5.50;99.90
19734;DHT22;10018;51.230;7.860;2024-03-06T08:47:52;5.70;99.90
19734;DHT22;10018;51.230;7.860;2024-03-06T08:50:19;5.70;99.90
19734;DHT22;10018;51.230;7.860;2024-03-06T08:52:45;5.70;99.90
19734;DHT22;10018;51.230;7.860;2024-03-06T08:55:11;5.80;99.90
19734;DHT22;10018;51.230;7.860;2024-03-06T08:57:38;5.90;99.90
19734;DHT22;10018;51.230;7.860;2024-03-06T09:00:07;5.90;99.90
19734;DHT22;10018;51.230;7.860;2024-03-06T09:02:37;6.00;99.90
19734;DHT22;10018;51.230;7.860;2024-03-06T09:05:09;6.10;99.90
19734;DHT22;10018;51.230;7.860;2024-03-06T09:07:39;6.20;99.90
19734;DHT22;10018;51.230;7.860;2024-03-06T09:10:11;6.20;99.90
19734;DHT22;10018;51.230;7.860;2024-03-06T09:12:39;6.20;99.90
19734;DHT22;10018;51.230;7.860;2024-03-06T09:15:08;6.30;99.90
19734;DHT22;10018;51.230;7.860;2024-03-06T09:17:34;6.30;99.90
19734;DHT22;10018;51.230;7.860;2024-03-06T09:20:00;6.40;99.90
19734;DHT22;10018;51.230;7.860;2024-03-06T09:22:44;6.50;99.90
19734;DHT22;10018;51.230;7.860;2024-03-06T09:25:11;6.50;99.90
19734;DHT22;10018;51.230;7.860;2024-03-06T09:27:39;6.60;99.90
19734;DHT22;10018;51.230;7.860;2024-03-06T09:30:05;6.70;99.90
19734;DHT22;10018;51.230;7.860;2024-03-06T09:32:30;6.80;99.90
19734;DHT22;10018;51.230;7.860;2024-03-06T09:34:56;6.80;99.90
19734;DHT22;10018;51.230;7.860;2024-03-06T09:37:22;6.80;99.90
19734;DHT22;10018;51.230;7.860;2024-03-06T09:39:49;6.80;99.90
19734;DHT22;10018;51.230;7.860;2024-03-06T09:42:16;6.70;99.90
19734;DHT22;10018;51.230;7.860;2024-03-06T09:44:43;6.80;99.90
19734;DHT22;10018;51.230;7.860;2024-03-06T09:47:13;6.90;99.90
19734;DHT22;10018;51.230;7.860;2024-03-06T09:49:40;6.90;99.90
19734;DHT22;10018;51.230;7.860;2024-03-06T09:52:06;7.00;99.90
19734;DHT22;10018;51.230;7.860;2024-03-06T09:54:32;7.00;99.90
19734;DHT22;10018;51.230;7.860;2024-03-06T09:56:58;7.10;99.90
19734;DHT22;10018;51.230;7.860;2024-03-06T09:59:24;7.10;99.90
19734;DHT22;10018;51.230;7.860;2024-03-06T10:01:53;7.10;99.90
19734;DHT22;10018;51.230;7.860;2024-03-06T10:04:26;7.20;99.90
19734;DHT22;10018;51.230;7.860;2024-03-06T10:06:54;7.30;99.90
19734;DHT22;10018;51.230;7.860;2024-03-06T10:09:21;7.40;99.90
19734;DHT22;10018;51.230;7.860;2024-03-06T10:11:47;7.50;99.90
19734;DHT22;10018;51.230;7.860;2024-03-06T10:14:13;7.70;99.90
19734;DHT22;10018;51.230;7.860;2024-03-06T10:19:18;7.80;99.90
19734;DHT22;10018;51.230;7.860;2024-03-06T10:21:47;7.90;99.90
19734;DHT22;10018;51.230;7.860;2024-03-06T10:24:20;8.00;99.90
19734;DHT22;10018;51.230;7.860;2024-03-06T10:26:46;8.10;99.90
19734;DHT22;10018;51.230;7.860;2024-03-06T10:29:18;8.10;99.90
19734;DHT22;10018;51.230;7.860;2024-03-06T10:31:55;8.30;99.90
19734;DHT22;10018;51.230;7.860;2024-03-06T10:34:22;8.40;99.90
19734;DHT22;10018;51.230;7.860;2024-03-06T10:36:55;8.40;99.90
19734;DHT22;10018;51.230;7.860;2024-03-06T10:39:20;8.40;99.90
19734;DHT22;10018;51.230;7.860;2024-03-06T10:41:56;8.20;99.90
19734;DHT22;10018;51.230;7.860;2024-03-06T10:44:26;8.10;99.90
19734;DHT22;10018;51.230;7.860;2024-03-06T10:46:59;8.10;99.90
19734;DHT22;10018;51.230;7.860;2024-03-06T10:49:30;8.00;99.90
19734;DHT22;10018;51.230;7.860;2024-03-06T10:52:01;8.10;99.90
19734;DHT22;10018;51.230;7.860;2024-03-06T10:54:28;8.20;99.90
19734;DHT22;10018;51.230;7.860;2024-03-06T10:56:57;8.30;99.90
19734;DHT22;10018;51.230;7.860;2024-03-06T10:59:25;8.50;99.90
19734;DHT22;10018;51.230;7.860;2024-03-06T11:01:57;8.60;99.90
19734;DHT22;10018;51.230;7.860;2024-03-06T11:04:26;8.60;99.90
19734;DHT22;10018;51.230;7.860;2024-03-06T11:06:58;8.70;99.90
19734;DHT22;10018;51.230;7.860;2024-03-06T11:09:43;8.90;99.90
19734;DHT22;10018;51.230;7.860;2024-03-06T11:12:08;9.00;99.90
19734;DHT22;10018;51.230;7.860;2024-03-06T11:14:38;9.20;99.90
19734;DHT22;10018;51.230;7.860;2024-03-06T11:17:05;9.30;99.90
19734;DHT22;10018;51.230;7.860;2024-03-06T11:28:16;10.00;99.90
19734;DHT22;10018;51.230;7.860;2024-03-06T11:33:14;10.40;99.90
19734;DHT22;10018;51.230;7.860;2024-03-06T11:35:42;10.60;99.90
19734;DHT22;10018;51.230;7.860;2024-03-06T11:38:16;10.80;99.90
19734;DHT22;10018;51.230;7.860;2024-03-06T11:40:48;10.90;99.90
19734;DHT22;10018;51.230;7.860;2024-03-06T11:43:25;11.00;99.90
19734;DHT22;10018;51.230;7.860;2024-03-06T11:45:52;11.10;99.90
19734;DHT22;10018;51.230;7.860;2024-03-06T11:48:18;11.10;99.90
19734;DHT22;10018;51.230;7.860;2024-03-06T11:50:47;11.20;99.90
19734;DHT22;10018;51.230;7.860;2024-03-06T11:53:16;11.30;99.90
19734;DHT22;10018;51.230;7.860;2024-03-06T11:55:42;11.30;99.90
19734;DHT22;10018;51.230;7.860;2024-03-06T11:58:11;11.30;99.90
19734;DHT22;10018;51.230;7.860;2024-03-06T12:00:37;11.10;99.90
19734;DHT22;10018;51.230;7.860;2024-03-06T12:03:03;11.10;99.90
19734;DHT22;10018;51.230;7.860;2024-03-06T12:05:33;11.20;99.90
19734;DHT22;10018;51.230;7.860;2024-03-06T12:08:02;11.00;99.90
19734;DHT22;10018;51.230;7.860;2024-03-06T12:10:28;11.00;99.90
19734;DHT22;10018;51.230;7.860;2024-03-06T12:12:54;11.20;99.90
19734;DHT22;10018;51.230;7.860;2024-03-06T12:15:19;11.30;99.90
19734;DHT22;10018;51.230;7.860;2024-03-06T12:17:48;11.40;99.90
19734;DHT22;10018;51.230;7.860;2024-03-06T12:20:16;11.60;99.90
19734;DHT22;10018;51.230;7.860;2024-03-06T12:23:00;11.70;99.90
19734;DHT22;10018;51.230;7.860;2024-03-06T12:25:28;11.80;99.90
19734;DHT22;10018;51.230;7.860;2024-03-06T12:27:55;12.00;99.90
19734;DHT22;10018;51.230;7.860;2024-03-06T12:30:22;12.10;99.90
19734;DHT22;10018;51.230;7.860;2024-03-06T12:33:00;12.30;99.90
19734;DHT22;10018;51.230;7.860;2024-03-06T12:35:30;12.00;99.90
19734;DHT22;10018;51.230;7.860;2024-03-06T12:37:56;12.20;99.90
19734;DHT22;10018;51.230;7.860;2024-03-06T12:40:22;12.50;99.90
19734;DHT22;10018;51.230;7.860;2024-03-06T12:42:48;12.10;99.90
19734;DHT22;10018;51.230;7.860;2024-03-06T12:45:15;11.90;99.90
19734;DHT22;10018;51.230;7.860;2024-03-06T12:47:46;11.80;99.90
19734;DHT22;10018;51.230;7.860;2024-03-06T12:50:14;11.60;99.90
19734;DHT22;10018;51.230;7.860;2024-03-06T12:52:40;11.50;99.90
19734;DHT22;10018;51.230;7.860;2024-03-06T12:55:06;11.40;99.90
19734;DHT22;10018;51.230;7.860;2024-03-06T12:57:33;11.40;99.90
19734;DHT22;10018;51.230;7.860;2024-03-06T12:59:58;11.40;99.90
19734;DHT22;10018;51.230;7.860;2024-03-06T13:02:25;11.30;99.90
19734;DHT22;10018;51.230;7.860;2024-03-06T13:04:50;11.40;99.90
19734;DHT22;10018;51.230;7.860;2024-03-06T13:07:16;11.40;99.90
19734;DHT22;10018;51.230;7.860;2024-03-06T13:09:41;11.70;99.90
19734;DHT22;10018;51.230;7.860;2024-03-06T13:12:07;12.10;99.90
19734;DHT22;10018;51.230;7.860;2024-03-06T13:14:33;12.40;99.90
19734;DHT22;10018;51.230;7.860;2024-03-06T13:16:59;12.70;99.90
19734;DHT22;10018;51.230;7.860;2024-03-06T13:19:28;13.00;99.90
19734;DHT22;10018;51.230;7.860;2024-03-06T13:21:54;13.20;99.90
19734;DHT22;10018;51.230;7.860;2024-03-06T13:24:20;13.30;99.90
19734;DHT22;10018;51.230;7.860;2024-03-06T13:26:46;13.60;99.90
19734;DHT22;10018;51.230;7.860;2024-03-06T13:29:12;13.80;99.90
19734;DHT22;10018;51.230;7.860;2024-03-06T13:31:38;13.60;99.90
19734;DHT22;10018;51.230;7.860;2024-03-06T13:34:04;13.70;99.90
19734;DHT22;10018;51.230;7.860;2024-03-06T13:36:30;13.50;99.90
19734;DHT22;10018;51.230;7.860;2024-03-06T13:38:56;13.30;99.90
19734;DHT22;10018;51.230;7.860;2024-03-06T13:41:22;13.20;99.90
19734;DHT22;10018;51.230;7.860;2024-03-06T13:43:47;12.50;99.90
19734;DHT22;10018;51.230;7.860;2024-03-06T13:46:15;11.90;99.90
19734;DHT22;10018;51.230;7.860;2024-03-06T13:48:41;11.50;99.90
19734;DHT22;10018;51.230;7.860;2024-03-06T13:51:09;11.40;99.90
19734;DHT22;10018;51.230;7.860;2024-03-06T13:53:35;11.40;99.90
19734;DHT22;10018;51.230;7.860;2024-03-06T13:56:00;11.30;99.90
19734;DHT22;10018;51.230;7.860;2024-03-06T13:58:26;11.40;99.90
19734;DHT22;10018;51.230;7.860;2024-03-06T14:00:52;11.30;99.90
19734;DHT22;10018;51.230;7.860;2024-03-06T14:03:17;11.10;99.90
19734;DHT22;10018;51.230;7.860;2024-03-06T14:05:43;11.10;99.90
19734;DHT22;10018;51.230;7.860;2024-03-06T14:08:08;11.10;99.90
19734;DHT22;10018;51.230;7.860;2024-03-06T14:10:38;11.20;99.90
19734;DHT22;10018;51.230;7.860;2024-03-06T14:13:04;11.20;99.90
19734;DHT22;10018;51.230;7.860;2024-03-06T14:15:31;11.20;99.90
19734;DHT22;10018;51.230;7.860;2024-03-06T14:17:56;11.30;99.90
19734;DHT22;10018;51.230;7.860;2024-03-06T14:20:22;11.30;99.90
19734;DHT22;10018;51.230;7.860;2024-03-06T14:22:49;11.20;99.90
19734;DHT22;10018;51.230;7.860;2024-03-06T14:25:14;11.40;99.90
19734;DHT22;10018;51.230;7.860;2024-03-06T14:27:40;11.30;99.90
19734;DHT22;10018;51.230;7.860;2024-03-06T14:30:06;11.20;99.90
19734;DHT22;10018;51.230;7.860;2024-03-06T14:32:32;11.20;99.90
19734;DHT22;10018;51.230;7.860;2024-03-06T14:35:01;11.10;99.90
19734;DHT22;10018;51.230;7.860;2024-03-06T14:37:26;11.20;99.90
19734;DHT22;10018;51.230;7.860;2024-03-06T14:39:53;11.20;99.90
19734;DHT22;10018;51.230;7.860;2024-03-06T14:42:19;11.40;99.90
19734;DHT22;10018;51.230;7.860;2024-03-06T14:44:45;11.30;99.90
19734;DHT22;10018;51.230;7.860;2024-03-06T14:47:12;11.20;99.90
19734;DHT22;10018;51.230;7.860;2024-03-06T14:49:37;11.40;99.90
19734;DHT22;10018;51.230;7.860;2024-03-06T14:52:03;11.50;99.90
19734;DHT22;10018;51.230;7.860;2024-03-06T14:54:30;11.50;99.90
19734;DHT22;10018;51.230;7.860;2024-03-06T14:56:56;11.60;99.90
19734;DHT22;10018;51.230;7.860;2024-03-06T14:59:21;11.50;99.90
19734;DHT22;10018;51.230;7.860;2024-03-06T15:01:47;11.70;99.90
19734;DHT22;10018;51.230;7.860;2024-03-06T15:04:15;11.70;99.90
19734;DHT22;10018;51.230;7.860;2024-03-06T15:06:42;11.70;99.90
19734;DHT22;10018;51.230;7.860;2024-03-06T15:09:08;11.60;99.90
19734;DHT22;10018;51.230;7.860;2024-03-06T15:11:39;11.70;99.90
19734;DHT22;10018;51.230;7.860;2024-03-06T15:14:09;11.60;99.90
19734;DHT22;10018;51.230;7.860;2024-03-06T15:16:39;11.70;99.90
19734;DHT22;10018;51.230;7.860;2024-03-06T15:19:06;11.80;99.90
19734;DHT22;10018;51.230;7.860;2024-03-06T15:21:31;12.10;99.90
19734;DHT22;10018;51.230;7.860;2024-03-06T15:23:57;12.30;99.90
19734;DHT22;10018;51.230;7.860;2024-03-06T15:26:23;12.30;99.90
19734;DHT22;10018;51.230;7.860;2024-03-06T15:28:49;12.10;99.90
19734;DHT22;10018;51.230;7.860;2024-03-06T15:31:14;11.60;99.90
19734;DHT22;10018;51.230;7.860;2024-03-06T15:33:40;11.60;99.90
19734;DHT22;10018;51.230;7.860;2024-03-06T15:36:06;11.50;99.90
19734;DHT22;10018;51.230;7.860;2024-03-06T15:38:31;11.40;99.90
19734;DHT22;10018;51.230;7.860;2024-03-06T15:40:57;11.50;99.90
19734;DHT22;10018;51.230;7.860;2024-03-06T15:43:23;11.60;99.90
19734;DHT22;10018;51.230;7.860;2024-03-06T15:45:48;11.80;99.90
19734;DHT22;10018;51.230;7.860;2024-03-06T15:48:14;11.60;99.90
19734;DHT22;10018;51.230;7.860;2024-03-06T15:50:41;11.70;99.90
19734;DHT22;10018;51.230;7.860;2024-03-06T15:53:07;11.70;99.90
19734;DHT22;10018;51.230;7.860;2024-03-06T15:55:33;11.50;99.90